createdAt,value
2023-12-11T00:00:50.206Z,1.84
2023-12-11T00:03:19.635Z,1.83
2023-12-11T00:05:48.313Z,1.85
2023-12-11T00:08:16.287Z,1.85
2023-12-11T00:10:44.370Z,1.93
2023-12-11T00:13:14.392Z,1.92
2023-12-11T00:15:42.828Z,1.87
2023-12-11T00:18:10.919Z,1.89
2023-12-11T00:20:40.242Z,1.88
2023-12-11T00:23:09.067Z,1.89
2023-12-11T00:25:38.053Z,2.05
2023-12-11T00:28:06.164Z,2.14
2023-12-11T00:30:34.318Z,2.15
2023-12-11T00:33:02.777Z,2.10
2023-12-11T00:35:31.142Z,2.24
2023-12-11T00:38:00.688Z,2.23
2023-12-11T00:40:28.751Z,2.19
2023-12-11T00:42:56.782Z,2.15
2023-12-11T00:45:24.824Z,2.29
2023-12-11T00:47:52.891Z,2.29
2023-12-11T00:50:21.270Z,2.19
2023-12-11T00:52:50.297Z,2.28
2023-12-11T00:55:19.764Z,2.11
2023-12-11T00:57:47.867Z,2.15
2023-12-11T01:00:34.642Z,2.11
2023-12-11T01:03:04.161Z,2.10
2023-12-11T01:05:33.317Z,2.15
2023-12-11T01:08:01.422Z,2.13
2023-12-11T01:10:30.665Z,2.17
2023-12-11T01:12:58.924Z,2.26
2023-12-11T01:15:28.523Z,2.25
2023-12-11T01:17:57.608Z,2.23
2023-12-11T01:23:49.245Z,2.31
2023-12-11T01:26:19.217Z,2.30
2023-12-11T01:30:01.125Z,2.31
2023-12-11T01:32:29.304Z,2.32
2023-12-11T01:34:57.530Z,2.30
2023-12-11T01:37:25.532Z,2.36
2023-12-11T01:39:53.523Z,2.45
2023-12-11T01:42:23.004Z,2.59
2023-12-11T01:44:51.219Z,2.66
2023-12-11T01:47:19.637Z,2.72
2023-12-11T01:49:47.706Z,2.72
2023-12-11T01:52:16.630Z,2.62
2023-12-11T01:54:47.412Z,2.62
2023-12-11T01:57:15.631Z,2.56
2023-12-11T01:59:49.059Z,2.44
2023-12-11T02:02:21.314Z,2.58
2023-12-11T02:04:51.372Z,2.59
2023-12-11T02:07:19.690Z,2.55
2023-12-11T02:09:47.900Z,2.47
2023-12-11T02:12:16.255Z,2.64
2023-12-11T02:14:45.748Z,2.71
2023-12-11T02:17:13.693Z,2.69
2023-12-11T02:19:41.957Z,2.79
2023-12-11T02:22:11.233Z,2.74
2023-12-11T02:24:44.420Z,2.72
2023-12-11T02:27:14.317Z,2.64
2023-12-11T02:29:42.351Z,2.57
2023-12-11T02:32:10.446Z,2.56
2023-12-11T02:34:38.703Z,2.56
2023-12-11T02:37:07.009Z,2.66
2023-12-11T02:39:35.243Z,2.63
2023-12-11T02:42:03.360Z,2.66
2023-12-11T02:44:32.781Z,2.64
2023-12-11T02:47:01.009Z,2.62
2023-12-11T02:49:29.206Z,2.58
2023-12-11T02:51:57.331Z,2.55
2023-12-11T02:54:25.367Z,2.55
2023-12-11T02:56:53.378Z,2.69
2023-12-11T02:59:21.556Z,2.67
2023-12-11T03:01:51.068Z,2.74
2023-12-11T03:04:19.391Z,2.79
2023-12-11T03:06:47.539Z,2.71
2023-12-11T03:09:15.643Z,2.79
2023-12-11T03:11:43.709Z,2.80
2023-12-11T03:14:11.670Z,2.80
2023-12-11T03:16:39.756Z,2.78
2023-12-11T03:19:09.177Z,2.64
2023-12-11T03:21:37.393Z,2.67
2023-12-11T03:24:05.701Z,2.61
2023-12-11T03:26:33.855Z,2.68
2023-12-11T03:29:02.640Z,2.54
2023-12-11T03:31:30.830Z,2.52
2023-12-11T03:33:58.859Z,2.59
2023-12-11T03:36:28.574Z,2.42
2023-12-11T03:38:56.807Z,2.40
2023-12-11T03:41:24.820Z,2.26
2023-12-11T03:43:52.858Z,2.26
2023-12-11T03:46:20.968Z,2.15
2023-12-11T03:48:49.329Z,2.10
2023-12-11T03:51:17.694Z,1.99
2023-12-11T03:53:47.176Z,2.05
2023-12-11T03:56:15.431Z,2.20
2023-12-11T03:58:43.524Z,2.08
2023-12-11T04:01:11.827Z,2.06
2023-12-11T04:03:39.846Z,1.98
2023-12-11T04:06:08.209Z,1.96
2023-12-11T04:08:40.570Z,2.03
2023-12-11T04:11:10.426Z,1.99
2023-12-11T04:13:38.573Z,2.13
2023-12-11T04:16:07.488Z,1.99
2023-12-11T04:18:37.660Z,1.98
2023-12-11T04:21:06.639Z,2.05
2023-12-11T04:23:34.991Z,2.04
2023-12-11T04:26:03.667Z,1.96
2023-12-11T04:28:33.043Z,2.10
2023-12-11T04:31:01.404Z,2.10
2023-12-11T04:33:29.740Z,2.17
2023-12-11T04:35:57.941Z,2.25
2023-12-11T04:38:26.008Z,2.24
2023-12-11T04:40:53.971Z,2.19
2023-12-11T04:43:21.867Z,2.19
2023-12-11T04:45:51.377Z,2.24
2023-12-11T04:48:19.675Z,2.33
2023-12-11T04:50:47.776Z,2.28
2023-12-11T04:53:15.801Z,2.35
2023-12-11T04:55:44.279Z,2.42
2023-12-11T04:58:12.505Z,2.50
2023-12-11T05:00:40.777Z,2.35
2023-12-11T05:03:10.095Z,2.31
2023-12-11T05:05:38.142Z,2.50
2023-12-11T05:08:06.986Z,2.46
2023-12-11T05:10:35.391Z,2.42
2023-12-11T05:13:03.579Z,2.52
2023-12-11T05:15:32.594Z,2.51
2023-12-11T05:18:00.610Z,2.54
2023-12-11T05:20:29.971Z,2.52
2023-12-11T05:22:58.467Z,2.48
2023-12-11T05:25:26.891Z,2.54
2023-12-11T05:27:55.041Z,2.59
2023-12-11T05:30:24.507Z,2.66
2023-12-11T05:32:52.927Z,2.63
2023-12-11T05:35:21.065Z,2.66
2023-12-11T05:37:50.599Z,2.74
2023-12-11T05:40:22.783Z,2.63
2023-12-11T05:42:52.621Z,2.66
2023-12-11T05:45:20.776Z,2.72
2023-12-11T05:47:49.015Z,2.81
2023-12-11T05:50:17.585Z,2.70
2023-12-11T05:52:46.250Z,2.73
2023-12-11T05:55:15.887Z,2.84
2023-12-11T05:57:46.344Z,2.86
2023-12-11T06:00:16.490Z,2.81
2023-12-11T06:02:44.613Z,2.78
2023-12-11T06:05:13.413Z,2.75
2023-12-11T06:07:42.000Z,2.91
2023-12-11T06:10:10.616Z,2.90
2023-12-11T06:12:40.054Z,2.91
2023-12-11T06:15:11.127Z,2.94
2023-12-11T06:17:39.695Z,2.84
2023-12-11T06:20:08.721Z,2.84
2023-12-11T06:22:36.741Z,2.95
2023-12-11T06:25:05.244Z,2.96
2023-12-11T06:27:33.560Z,2.93
2023-12-11T06:30:04.596Z,2.93
2023-12-11T06:32:32.784Z,2.91
2023-12-11T06:35:01.816Z,2.97
2023-12-11T06:37:30.735Z,2.86
2023-12-11T06:39:59.111Z,2.94
2023-12-11T06:42:27.586Z,2.94
2023-12-11T06:44:55.717Z,2.91
2023-12-11T06:47:28.250Z,2.86
2023-12-11T06:49:56.517Z,2.88
2023-12-11T06:52:24.564Z,2.84
2023-12-11T06:54:54.891Z,2.81
2023-12-11T06:57:23.917Z,2.79
2023-12-11T06:59:52.046Z,2.73
2023-12-11T07:02:20.662Z,2.66
2023-12-11T07:04:51.063Z,2.68
2023-12-11T07:07:19.450Z,2.73
2023-12-11T07:09:48.836Z,2.75
2023-12-11T07:12:17.039Z,2.68
2023-12-11T07:14:45.532Z,2.62
2023-12-11T07:17:13.896Z,2.77
2023-12-11T07:19:42.069Z,2.70
2023-12-11T07:22:11.616Z,2.73
2023-12-11T07:24:39.628Z,2.71
2023-12-11T07:27:08.325Z,2.73
2023-12-11T07:29:36.361Z,2.96
2023-12-11T07:32:04.813Z,3.05
2023-12-11T07:34:32.962Z,3.12
2023-12-11T07:37:02.482Z,3.22
2023-12-11T07:39:31.905Z,3.21
2023-12-11T07:42:00.024Z,3.23
2023-12-11T07:44:28.092Z,3.37
2023-12-11T07:46:56.137Z,3.53
2023-12-11T07:49:24.343Z,3.92
2023-12-11T07:51:56.214Z,4.47
2023-12-11T07:54:24.481Z,5.17
2023-12-11T07:56:54.821Z,5.48
2023-12-11T07:59:23.013Z,5.38
2023-12-11T08:01:53.422Z,5.58
2023-12-11T08:04:21.705Z,5.94
2023-12-11T08:06:51.500Z,6.44
2023-12-11T08:09:19.740Z,6.33
2023-12-11T08:11:48.164Z,6.10
2023-12-11T08:14:18.467Z,5.02
2023-12-11T08:16:46.439Z,4.57
2023-12-11T08:19:14.820Z,4.22
2023-12-11T08:21:43.395Z,4.30
2023-12-11T08:24:11.616Z,4.12
2023-12-11T08:26:39.698Z,4.00
2023-12-11T08:29:08.694Z,4.03
2023-12-11T08:31:38.266Z,4.03
2023-12-11T08:34:06.739Z,4.03
2023-12-11T08:36:34.866Z,3.98
2023-12-11T08:39:04.126Z,4.09
2023-12-11T08:41:32.065Z,4.18
2023-12-11T08:44:00.203Z,4.25
2023-12-11T08:46:28.313Z,4.41
2023-12-11T08:48:57.737Z,4.55
2023-12-11T08:51:25.911Z,4.47
2023-12-11T08:53:54.082Z,4.26
2023-12-11T08:56:22.922Z,4.43
2023-12-11T08:58:52.086Z,4.49
2023-12-11T09:01:21.085Z,4.44
2023-12-11T09:03:49.698Z,4.57
2023-12-11T09:06:19.726Z,4.56
2023-12-11T09:08:48.445Z,4.61
2023-12-11T09:11:16.814Z,4.92
2023-12-11T09:13:44.788Z,5.11
2023-12-11T09:16:13.449Z,5.28
2023-12-11T09:18:42.314Z,5.24
2023-12-11T09:21:11.121Z,5.26
2023-12-11T09:23:41.132Z,5.39
2023-12-11T09:26:09.030Z,5.27
2023-12-11T09:28:48.184Z,5.13
2023-12-11T09:31:21.099Z,4.95
2023-12-11T09:33:49.491Z,4.88
2023-12-11T09:36:17.753Z,4.96
2023-12-11T09:38:47.256Z,4.86
2023-12-11T09:41:15.517Z,4.93
2023-12-11T09:43:45.055Z,4.86
2023-12-11T09:46:17.426Z,4.99
2023-12-11T09:48:45.851Z,4.85
2023-12-11T09:51:15.401Z,5.00
2023-12-11T09:53:43.896Z,5.06
2023-12-11T09:56:14.597Z,5.11
2023-12-11T09:58:44.072Z,5.24
2023-12-11T10:01:14.325Z,5.21
2023-12-11T10:03:42.762Z,5.39
2023-12-11T10:06:11.035Z,5.39
2023-12-11T10:08:43.928Z,5.52
2023-12-11T10:11:15.530Z,5.42
2023-12-11T10:13:44.013Z,5.43
2023-12-11T10:16:30.171Z,5.54
2023-12-11T10:18:58.396Z,5.59
2023-12-11T10:21:27.017Z,5.68
2023-12-11T10:24:05.771Z,5.85
2023-12-11T10:26:39.094Z,5.72
2023-12-11T10:29:21.114Z,5.81
2023-12-11T10:31:49.429Z,5.94
2023-12-11T10:34:17.598Z,6.23
2023-12-11T10:36:50.405Z,6.22
2023-12-11T10:39:19.644Z,6.23
2023-12-11T10:41:49.296Z,6.16
2023-12-11T10:44:40.043Z,6.07
2023-12-11T10:47:15.712Z,5.87
2023-12-11T10:49:44.662Z,5.89
2023-12-11T10:52:13.401Z,5.90
2023-12-11T10:54:43.342Z,5.88
2023-12-11T10:57:16.689Z,5.97
2023-12-11T10:59:46.130Z,6.05
2023-12-11T11:02:40.084Z,6.26
2023-12-11T11:05:09.261Z,6.26
2023-12-11T11:07:39.044Z,6.33
2023-12-11T11:10:12.030Z,6.30
2023-12-11T11:12:45.864Z,6.47
2023-12-11T11:15:13.018Z,6.60
2023-12-11T11:18:01.061Z,6.45
2023-12-11T11:20:30.093Z,6.36
2023-12-11T11:23:23.486Z,6.17
2023-12-11T11:25:55.379Z,6.10
2023-12-11T11:28:42.246Z,5.72
2023-12-11T11:31:19.863Z,5.65
2023-12-11T11:33:57.794Z,5.56
2023-12-11T11:36:46.412Z,5.53
2023-12-11T11:39:14.859Z,5.30
2023-12-11T11:41:44.848Z,5.27
2023-12-11T11:44:17.128Z,5.18
2023-12-11T11:46:53.247Z,5.14
2023-12-11T11:49:32.731Z,5.11
2023-12-11T11:52:01.661Z,5.13
2023-12-11T11:54:31.478Z,5.07
2023-12-11T11:56:59.632Z,5.12
2023-12-11T11:59:29.413Z,5.23
2023-12-11T12:01:59.575Z,5.21
2023-12-11T12:04:31.801Z,5.08
2023-12-11T12:07:02.675Z,5.08
2023-12-11T12:09:31.532Z,5.16
2023-12-11T12:12:00.106Z,5.15
2023-12-11T12:14:29.634Z,5.26
2023-12-11T12:16:57.860Z,5.31
2023-12-11T12:19:32.795Z,5.35
2023-12-11T12:22:03.260Z,5.45
2023-12-11T12:24:31.779Z,5.51
2023-12-11T12:27:03.933Z,5.60
2023-12-11T12:29:34.365Z,5.46
2023-12-11T12:32:02.770Z,5.42
2023-12-11T12:34:33.131Z,5.41
2023-12-11T12:37:03.933Z,5.33
2023-12-11T12:40:49.274Z,5.21
2023-12-11T12:43:17.961Z,5.19
2023-12-11T12:45:47.568Z,5.21
2023-12-11T12:48:16.183Z,5.23
2023-12-11T12:50:44.215Z,5.35
2023-12-11T12:53:15.706Z,5.27
2023-12-11T12:55:44.062Z,5.09
2023-12-11T12:58:15.702Z,5.07
2023-12-11T13:00:47.486Z,5.03
2023-12-11T13:03:20.252Z,4.89
2023-12-11T13:05:49.911Z,4.75
2023-12-11T13:08:17.827Z,4.74
2023-12-11T13:10:56.433Z,4.74
2023-12-11T13:13:27.874Z,4.82
2023-12-11T13:15:58.461Z,4.89
2023-12-11T13:18:27.225Z,4.90
2023-12-11T13:20:55.351Z,4.91
2023-12-11T13:23:25.085Z,4.84
2023-12-11T13:25:53.302Z,4.85
2023-12-11T13:28:21.425Z,4.83
2023-12-11T13:30:49.677Z,4.85
2023-12-11T13:33:19.105Z,5.02
2023-12-11T13:35:47.122Z,5.07
2023-12-11T13:38:15.736Z,5.09
2023-12-11T13:40:44.049Z,5.14
2023-12-11T13:43:12.919Z,5.23
2023-12-11T13:45:41.180Z,5.26
2023-12-11T13:48:09.609Z,5.28
2023-12-11T13:50:40.124Z,5.22
2023-12-11T13:53:08.046Z,5.12
2023-12-11T13:55:36.464Z,5.06
2023-12-11T13:58:04.391Z,5.02
2023-12-11T14:00:32.686Z,4.89
2023-12-11T14:03:04.364Z,4.91
2023-12-11T14:05:34.052Z,4.95
2023-12-11T14:08:05.561Z,4.94
2023-12-11T14:10:36.077Z,4.93
2023-12-11T14:13:04.850Z,4.89
2023-12-11T14:15:33.643Z,4.89
2023-12-11T14:18:04.511Z,4.79
2023-12-11T14:20:32.735Z,4.75
2023-12-11T14:23:00.823Z,4.71
2023-12-11T14:25:30.499Z,4.75
2023-12-11T14:28:02.318Z,4.76
2023-12-11T14:30:30.397Z,4.73
2023-12-11T14:32:58.416Z,4.83
2023-12-11T14:35:26.890Z,4.77
2023-12-11T14:37:54.874Z,4.79
2023-12-11T14:40:23.300Z,4.76
2023-12-11T14:42:52.615Z,4.73
2023-12-11T14:45:20.830Z,4.75
2023-12-11T14:47:48.978Z,4.84
2023-12-11T14:50:17.223Z,4.81
2023-12-11T14:52:45.488Z,4.81
2023-12-11T14:55:19.036Z,4.89
2023-12-11T14:57:54.482Z,4.88
2023-12-11T15:00:22.754Z,4.80
2023-12-11T15:02:50.769Z,4.87
2023-12-11T15:05:18.899Z,4.87
2023-12-11T15:07:48.059Z,4.88
2023-12-11T15:10:16.378Z,4.88
2023-12-11T15:12:44.522Z,4.99
2023-12-11T15:15:14.299Z,5.12
2023-12-11T15:17:42.925Z,5.19
2023-12-11T15:20:13.492Z,5.20
2023-12-11T15:22:43.055Z,5.17
2023-12-11T15:25:12.051Z,5.15
2023-12-11T15:27:40.419Z,5.19
2023-12-11T15:30:10.080Z,5.23
2023-12-11T15:32:39.465Z,5.31
2023-12-11T15:35:08.254Z,5.21
2023-12-11T15:37:36.451Z,5.22
2023-12-11T15:40:08.378Z,5.20
2023-12-11T15:42:39.246Z,5.15
2023-12-11T15:45:08.226Z,5.15
2023-12-11T15:47:59.836Z,5.15
2023-12-11T15:50:26.370Z,5.19
2023-12-11T15:52:55.584Z,5.16
2023-12-11T15:55:23.546Z,5.24
2023-12-11T15:57:53.365Z,5.27
2023-12-11T16:00:22.325Z,5.26
2023-12-11T16:02:50.265Z,5.26
2023-12-11T16:05:18.248Z,5.24
2023-12-11T16:07:47.592Z,5.22
2023-12-11T16:10:15.725Z,5.24
2023-12-11T16:12:44.074Z,5.27
2023-12-11T16:15:12.826Z,5.32
2023-12-11T16:17:40.778Z,5.27
2023-12-11T16:20:10.153Z,5.40
2023-12-11T16:22:38.289Z,5.32
2023-12-11T16:25:11.420Z,5.29
2023-12-11T16:27:39.652Z,5.21
2023-12-11T16:32:38.814Z,5.29
2023-12-11T16:35:07.922Z,5.25
2023-12-11T16:37:36.309Z,5.23
2023-12-11T16:40:07.654Z,5.26
2023-12-11T16:42:37.417Z,5.27
2023-12-11T16:45:06.659Z,5.35
2023-12-11T16:47:35.314Z,5.34
2023-12-11T16:50:07.687Z,5.26
2023-12-11T16:52:36.683Z,5.21
2023-12-11T16:55:05.678Z,5.17
2023-12-11T16:57:33.732Z,5.21
2023-12-11T17:00:03.697Z,5.28
2023-12-11T17:02:32.037Z,5.26
2023-12-11T17:05:00.842Z,5.25
2023-12-11T17:07:29.618Z,5.31
2023-12-11T17:09:59.088Z,5.29
2023-12-11T17:12:27.501Z,5.39
2023-12-11T17:14:57.488Z,5.51
2023-12-11T17:17:27.392Z,5.38
2023-12-11T17:19:55.394Z,5.47
2023-12-11T17:22:23.592Z,5.37
2023-12-11T17:24:51.858Z,5.38
2023-12-11T17:27:19.978Z,5.44
2023-12-11T17:29:48.049Z,5.27
2023-12-11T17:32:16.254Z,5.21
2023-12-11T17:34:46.491Z,5.32
2023-12-11T17:37:14.736Z,5.37
2023-12-11T17:39:42.939Z,5.28
2023-12-11T17:42:11.010Z,5.21
2023-12-11T17:44:38.958Z,5.19
2023-12-11T17:47:07.285Z,5.31
2023-12-11T17:49:35.324Z,5.37
2023-12-11T17:52:05.307Z,5.42
2023-12-11T17:54:33.391Z,5.24
2023-12-11T17:57:04.415Z,5.23
2023-12-11T17:59:32.674Z,5.17
2023-12-11T18:02:01.287Z,5.30
2023-12-11T18:04:29.625Z,5.25
2023-12-11T18:06:57.789Z,5.12
2023-12-11T18:09:27.171Z,5.02
2023-12-11T18:11:55.078Z,5.12
2023-12-11T18:14:24.187Z,4.93
2023-12-11T18:16:53.047Z,4.92
2023-12-11T18:19:21.226Z,4.91
2023-12-11T18:21:49.636Z,4.92
2023-12-11T18:24:17.708Z,4.93
2023-12-11T18:26:47.441Z,5.00
2023-12-11T18:29:17.727Z,4.91
2023-12-11T18:31:45.971Z,4.97
2023-12-11T18:34:14.082Z,4.90
2023-12-11T18:36:42.495Z,4.92
2023-12-11T18:39:13.620Z,4.94
2023-12-11T18:41:41.728Z,4.98
2023-12-11T18:44:11.439Z,5.04
2023-12-11T18:46:39.680Z,5.14
2023-12-11T18:49:07.779Z,5.08
2023-12-11T18:51:37.378Z,5.12
2023-12-11T18:54:05.362Z,5.11
2023-12-11T18:56:35.644Z,5.07
2023-12-11T18:59:04.513Z,5.22
2023-12-11T19:01:34.718Z,5.32
2023-12-11T19:04:03.291Z,5.32
2023-12-11T19:06:31.454Z,5.33
2023-12-11T19:08:59.772Z,5.24
2023-12-11T19:11:28.781Z,5.24
2023-12-11T19:13:56.790Z,5.31
2023-12-11T19:16:25.059Z,5.25
2023-12-11T19:18:54.594Z,5.35
2023-12-11T19:21:22.773Z,5.27
2023-12-11T19:23:52.513Z,5.24
2023-12-11T19:26:20.911Z,5.22
2023-12-11T19:28:49.030Z,5.27
2023-12-11T19:31:17.781Z,5.24
2023-12-11T19:33:45.975Z,5.20
2023-12-11T19:36:16.769Z,5.19
2023-12-11T19:38:44.728Z,5.17
2023-12-11T19:41:13.030Z,5.18
2023-12-11T19:43:41.131Z,5.15
2023-12-11T19:46:09.760Z,5.09
2023-12-11T19:48:39.417Z,5.18
2023-12-11T19:51:12.822Z,5.08
2023-12-11T19:53:42.310Z,5.00
2023-12-11T19:56:10.549Z,5.02
2023-12-11T19:58:38.608Z,4.89
2023-12-11T20:01:07.307Z,4.89
2023-12-11T20:03:35.518Z,4.72
2023-12-11T20:06:03.503Z,4.65
2023-12-11T20:08:31.651Z,4.62
2023-12-11T20:11:01.022Z,4.53
2023-12-11T20:13:29.340Z,4.51
2023-12-11T20:15:58.012Z,4.62
2023-12-11T20:18:26.351Z,4.65
2023-12-11T20:20:54.531Z,4.69
2023-12-11T20:23:22.654Z,4.64
2023-12-11T20:25:50.646Z,4.66
2023-12-11T20:28:20.163Z,4.63
2023-12-11T20:30:48.355Z,4.54
2023-12-11T20:33:16.628Z,4.53
2023-12-11T20:35:44.797Z,4.41
2023-12-11T20:38:13.030Z,4.49
2023-12-11T20:40:41.476Z,4.48
2023-12-11T20:43:09.812Z,4.35
2023-12-11T20:45:39.182Z,4.42
2023-12-11T20:48:07.721Z,4.36
2023-12-11T20:50:36.251Z,4.51
2023-12-11T20:53:04.363Z,4.60
2023-12-11T20:55:32.590Z,4.78
2023-12-11T20:58:00.684Z,4.83
2023-12-11T21:00:28.693Z,4.76
2023-12-11T21:03:00.573Z,4.69
2023-12-11T21:05:29.573Z,4.62
2023-12-11T21:07:57.753Z,4.60
2023-12-11T21:10:26.108Z,4.66
2023-12-11T21:12:54.200Z,4.60
2023-12-11T21:15:24.957Z,4.66
2023-12-11T21:17:54.010Z,4.71
2023-12-11T21:20:23.330Z,4.74
2023-12-11T21:22:51.415Z,4.65
2023-12-11T21:25:22.102Z,4.66
2023-12-11T21:27:50.212Z,4.65
2023-12-11T21:30:18.275Z,4.56
2023-12-11T21:32:46.329Z,4.69
2023-12-11T21:35:14.935Z,4.63
2023-12-11T21:37:44.342Z,4.72
2023-12-11T21:40:13.080Z,4.66
2023-12-11T21:42:42.689Z,4.71
2023-12-11T21:45:11.374Z,4.63
2023-12-11T21:47:39.653Z,4.71
2023-12-11T21:50:10.153Z,4.69
2023-12-11T21:52:38.273Z,4.67
2023-12-11T21:55:08.819Z,4.69
2023-12-11T21:57:36.916Z,4.73
2023-12-11T22:00:05.874Z,4.64
2023-12-11T22:02:40.167Z,4.69
2023-12-11T22:05:09.499Z,4.67
2023-12-11T22:07:37.481Z,4.63
2023-12-11T22:10:08.289Z,4.67
2023-12-11T22:12:36.354Z,4.65
2023-12-11T22:15:04.765Z,4.62
2023-12-11T22:17:33.020Z,4.63
2023-12-11T22:20:01.133Z,4.65
2023-12-11T22:22:29.273Z,4.66
2023-12-11T22:24:57.454Z,4.62
2023-12-11T22:27:27.401Z,4.68
2023-12-11T22:29:55.330Z,4.69
2023-12-11T22:32:23.674Z,4.59
2023-12-11T22:34:52.472Z,4.56
2023-12-11T22:37:20.568Z,4.59
2023-12-11T22:39:48.594Z,4.60
2023-12-11T22:42:16.710Z,4.60
2023-12-11T22:44:45.995Z,4.60
2023-12-11T22:47:14.174Z,4.64
2023-12-11T22:49:42.262Z,4.63
2023-12-11T22:52:10.399Z,4.66
2023-12-11T22:54:38.423Z,4.67
2023-12-11T22:57:06.620Z,4.73
2023-12-11T22:59:35.092Z,4.64
2023-12-11T23:02:04.985Z,4.71
2023-12-11T23:04:33.592Z,4.60
2023-12-11T23:07:01.903Z,4.61
2023-12-11T23:09:29.885Z,4.60
2023-12-11T23:11:58.032Z,4.52
2023-12-11T23:14:26.126Z,4.49
2023-12-11T23:16:54.761Z,4.53
2023-12-11T23:19:24.207Z,4.60
2023-12-11T23:21:53.066Z,4.56
2023-12-11T23:24:21.099Z,4.56
2023-12-11T23:26:49.243Z,4.54
2023-12-11T23:29:17.196Z,4.52
2023-12-11T23:31:45.259Z,4.48
2023-12-11T23:34:13.372Z,4.40
2023-12-11T23:36:43.319Z,4.42
2023-12-11T23:39:11.401Z,4.39
2023-12-11T23:41:39.422Z,4.38
2023-12-11T23:44:07.399Z,4.38
2023-12-11T23:46:35.587Z,4.33
2023-12-11T23:49:03.849Z,4.32
2023-12-11T23:51:32.186Z,4.24
2023-12-11T23:54:01.782Z,4.20
2023-12-11T23:56:29.727Z,4.19
2023-12-11T23:58:57.748Z,4.16
